sensor_id;sensor_type;location;lat;lon;timestamp;pressure;altitude;pressure_sealevel;temperature;humidity
48796;BME280;34607;48.520;-1.330;2023-07-08T05:16:47;99953.44;;;20.53;95.50
48796;BME280;34607;48.520;-1.330;2023-07-08T05:19:14;99955.91;;;20.57;95.45
48796;BME280;34607;48.520;-1.330;2023-07-08T05:21:41;99954.19;;;20.56;95.52
48796;BME280;34607;48.520;-1.330;2023-07-08T05:24:10;99984.25;;;20.77;95.27
48796;BME280;34607;48.520;-1.330;2023-07-08T05:26:37;99993.00;;;20.78;94.96
48796;BME280;34607;48.520;-1.330;2023-07-08T05:29:04;99986.78;;;20.81;95.40
48796;BME280;34607;48.520;-1.330;2023-07-08T05:31:33;99981.63;;;20.77;95.30
48796;BME280;34607;48.520;-1.330;2023-07-08T05:34:01;100010.81;;;20.98;95.24
48796;BME280;34607;48.520;-1.330;2023-07-08T05:36:28;100019.38;;;21.05;94.67
48796;BME280;34607;48.520;-1.330;2023-07-08T05:38:56;100010.03;;;20.94;95.21
48796;BME280;34607;48.520;-1.330;2023-07-08T05:41:23;100021.25;;;21.01;95.28
48796;BME280;34607;48.520;-1.330;2023-07-08T05:43:50;100031.00;;;20.98;95.60
48796;BME280;34607;48.520;-1.330;2023-07-08T05:46:17;100030.13;;;20.97;95.41
48796;BME280;34607;48.520;-1.330;2023-07-08T05:48:44;100025.91;;;20.91;95.64
48796;BME280;34607;48.520;-1.330;2023-07-08T05:51:13;100030.16;;;20.95;95.83
48796;BME280;34607;48.520;-1.330;2023-07-08T05:53:40;100012.38;;;20.75;96.12
48796;BME280;34607;48.520;-1.330;2023-07-08T05:56:07;100036.34;;;20.94;95.72
48796;BME280;34607;48.520;-1.330;2023-07-08T05:58:34;100037.13;;;20.98;95.95
48796;BME280;34607;48.520;-1.330;2023-07-08T06:01:01;100023.97;;;20.98;95.67
48796;BME280;34607;48.520;-1.330;2023-07-08T06:03:28;100016.81;;;21.02;95.82
48796;BME280;34607;48.520;-1.330;2023-07-08T06:05:55;100040.91;;;21.16;96.02
48796;BME280;34607;48.520;-1.330;2023-07-08T06:08:23;100057.69;;;21.13;95.86
48796;BME280;34607;48.520;-1.330;2023-07-08T06:10:50;100055.09;;;21.12;95.88
48796;BME280;34607;48.520;-1.330;2023-07-08T06:13:18;100059.56;;;21.10;95.94
48796;BME280;34607;48.520;-1.330;2023-07-08T06:15:45;100034.41;;;21.01;96.20
48796;BME280;34607;48.520;-1.330;2023-07-08T06:18:12;100048.31;;;21.05;96.37
48796;BME280;34607;48.520;-1.330;2023-07-08T06:20:39;100041.28;;;21.05;96.34
48796;BME280;34607;48.520;-1.330;2023-07-08T06:23:06;100037.75;;;21.06;96.44
48796;BME280;34607;48.520;-1.330;2023-07-08T06:25:34;100026.09;;;21.13;95.81
48796;BME280;34607;48.520;-1.330;2023-07-08T06:28:01;100031.06;;;21.23;95.69
48796;BME280;34607;48.520;-1.330;2023-07-08T06:30:28;100024.66;;;21.30;95.83
48796;BME280;34607;48.520;-1.330;2023-07-08T06:32:55;100028.94;;;21.34;94.88
48796;BME280;34607;48.520;-1.330;2023-07-08T06:35:22;100033.59;;;21.26;94.83
48796;BME280;34607;48.520;-1.330;2023-07-08T06:37:49;100015.34;;;21.20;95.18
48796;BME280;34607;48.520;-1.330;2023-07-08T06:40:16;100037.44;;;21.16;95.19
48796;BME280;34607;48.520;-1.330;2023-07-08T06:42:46;100045.69;;;21.05;96.01
48796;BME280;34607;48.520;-1.330;2023-07-08T06:45:24;100048.66;;;20.94;96.79
48796;BME280;34607;48.520;-1.330;2023-07-08T06:47:51;100036.44;;;20.91;97.11
48796;BME280;34607;48.520;-1.330;2023-07-08T06:50:18;100010.53;;;21.06;96.83
48796;BME280;34607;48.520;-1.330;2023-07-08T06:52:45;99998.69;;;21.19;96.49
48796;BME280;34607;48.520;-1.330;2023-07-08T06:55:12;99967.91;;;21.21;96.67
48796;BME280;34607;48.520;-1.330;2023-07-08T06:57:40;99941.63;;;21.20;96.86
48796;BME280;34607;48.520;-1.330;2023-07-08T07:00:10;99929.16;;;21.25;96.59
48796;BME280;34607;48.520;-1.330;2023-07-08T07:02:37;99929.94;;;21.28;96.54
48796;BME280;34607;48.520;-1.330;2023-07-08T07:05:05;99913.91;;;21.35;96.90
48796;BME280;34607;48.520;-1.330;2023-07-08T07:07:32;99920.81;;;21.39;96.13
48796;BME280;34607;48.520;-1.330;2023-07-08T07:10:00;99911.00;;;21.42;96.00
48796;BME280;34607;48.520;-1.330;2023-07-08T07:12:27;99902.91;;;21.48;95.44
48796;BME280;34607;48.520;-1.330;2023-07-08T07:14:54;99877.66;;;21.41;95.40
48796;BME280;34607;48.520;-1.330;2023-07-08T07:17:24;99885.16;;;21.54;95.29
48796;BME280;34607;48.520;-1.330;2023-07-08T07:19:52;99889.47;;;21.56;95.40
48796;BME280;34607;48.520;-1.330;2023-07-08T07:22:19;99933.38;;;21.56;95.36
48796;BME280;34607;48.520;-1.330;2023-07-08T07:24:46;99940.72;;;21.21;96.49
48796;BME280;34607;48.520;-1.330;2023-07-08T07:27:13;99955.09;;;21.10;97.58
48796;BME280;34607;48.520;-1.330;2023-07-08T07:29:42;99963.81;;;21.12;97.96
48796;BME280;34607;48.520;-1.330;2023-07-08T07:32:09;99937.53;;;21.11;97.57
48796;BME280;34607;48.520;-1.330;2023-07-08T07:34:39;99951.34;;;21.18;97.36
48796;BME280;34607;48.520;-1.330;2023-07-08T07:37:06;99942.78;;;21.38;96.75
48796;BME280;34607;48.520;-1.330;2023-07-08T07:39:37;99956.81;;;21.63;95.66
48796;BME280;34607;48.520;-1.330;2023-07-08T07:42:04;99976.16;;;21.87;95.29
48796;BME280;34607;48.520;-1.330;2023-07-08T07:44:32;99979.50;;;22.16;94.78
48796;BME280;34607;48.520;-1.330;2023-07-08T07:46:59;99974.09;;;22.43;94.39
48796;BME280;34607;48.520;-1.330;2023-07-08T07:49:26;99968.13;;;22.61;93.25
48796;BME280;34607;48.520;-1.330;2023-07-08T07:51:54;99991.19;;;23.00;92.32
48796;BME280;34607;48.520;-1.330;2023-07-08T07:54:21;99996.94;;;23.12;90.76
48796;BME280;34607;48.520;-1.330;2023-07-08T07:56:48;100003.94;;;23.13;90.30
48796;BME280;34607;48.520;-1.330;2023-07-08T07:59:15;100008.53;;;23.08;90.67
48796;BME280;34607;48.520;-1.330;2023-07-08T08:01:43;100024.25;;;23.11;90.77
48796;BME280;34607;48.520;-1.330;2023-07-08T08:04:10;100033.91;;;23.12;90.89
48796;BME280;34607;48.520;-1.330;2023-07-08T08:06:37;100048.94;;;23.10;90.45
48796;BME280;34607;48.520;-1.330;2023-07-08T08:09:06;100059.19;;;22.95;90.74
48796;BME280;34607;48.520;-1.330;2023-07-08T08:11:33;100070.34;;;22.80;91.15
48796;BME280;34607;48.520;-1.330;2023-07-08T08:14:01;100091.00;;;22.69;91.88
48796;BME280;34607;48.520;-1.330;2023-07-08T08:16:29;100094.13;;;22.56;92.15
48796;BME280;34607;48.520;-1.330;2023-07-08T08:18:56;100082.63;;;22.34;92.93
48796;BME280;34607;48.520;-1.330;2023-07-08T08:21:23;100083.22;;;22.42;93.22
48796;BME280;34607;48.520;-1.330;2023-07-08T08:23:50;100062.22;;;22.39;93.14
48796;BME280;34607;48.520;-1.330;2023-07-08T08:26:19;100083.84;;;22.49;93.35
48796;BME280;34607;48.520;-1.330;2023-07-08T08:28:46;100084.81;;;22.46;93.56
48796;BME280;34607;48.520;-1.330;2023-07-08T08:31:13;100051.56;;;22.42;94.18
48796;BME280;34607;48.520;-1.330;2023-07-08T08:33:39;100001.84;;;22.31;94.81
48796;BME280;34607;48.520;-1.330;2023-07-08T08:36:07;99958.53;;;22.13;95.97
48796;BME280;34607;48.520;-1.330;2023-07-08T08:38:34;99955.56;;;21.99;98.19
48796;BME280;34607;48.520;-1.330;2023-07-08T08:41:03;100019.00;;;22.18;98.66
48796;BME280;34607;48.520;-1.330;2023-07-08T08:43:36;100029.78;;;22.37;98.26
48796;BME280;34607;48.520;-1.330;2023-07-08T08:46:09;100005.13;;;22.60;98.35
48796;BME280;34607;48.520;-1.330;2023-07-08T08:48:44;100004.22;;;22.83;98.67
48796;BME280;34607;48.520;-1.330;2023-07-08T08:51:17;100009.88;;;23.18;98.40
48796;BME280;34607;48.520;-1.330;2023-07-08T08:53:45;100006.72;;;23.51;98.31
48796;BME280;34607;48.520;-1.330;2023-07-08T08:56:17;100020.44;;;23.81;96.64
48796;BME280;34607;48.520;-1.330;2023-07-08T08:58:53;100004.75;;;23.97;95.24
48796;BME280;34607;48.520;-1.330;2023-07-08T09:01:22;100019.72;;;24.17;93.22
48796;BME280;34607;48.520;-1.330;2023-07-08T09:03:54;100018.53;;;24.43;93.89
48796;BME280;34607;48.520;-1.330;2023-07-08T09:06:24;100036.00;;;25.22;91.37
48796;BME280;34607;48.520;-1.330;2023-07-08T09:08:52;100051.63;;;25.46;88.32
48796;BME280;34607;48.520;-1.330;2023-07-08T09:11:36;100064.66;;;25.33;86.52
48796;BME280;34607;48.520;-1.330;2023-07-08T09:14:13;100056.56;;;25.17;88.19
48796;BME280;34607;48.520;-1.330;2023-07-08T09:16:47;100090.50;;;25.09;87.97
48796;BME280;34607;48.520;-1.330;2023-07-08T09:19:22;100102.84;;;24.91;88.45
48796;BME280;34607;48.520;-1.330;2023-07-08T09:21:57;100093.44;;;24.66;88.89
48796;BME280;34607;48.520;-1.330;2023-07-08T09:24:30;100096.50;;;24.36;89.80
48796;BME280;34607;48.520;-1.330;2023-07-08T09:27:01;100099.50;;;24.28;90.25
48796;BME280;34607;48.520;-1.330;2023-07-08T09:29:32;100103.00;;;24.29;90.63
48796;BME280;34607;48.520;-1.330;2023-07-08T09:32:11;100082.75;;;24.28;90.27
48796;BME280;34607;48.520;-1.330;2023-07-08T09:34:43;100080.00;;;24.10;89.29
48796;BME280;34607;48.520;-1.330;2023-07-08T09:37:25;100093.16;;;24.12;89.29
48796;BME280;34607;48.520;-1.330;2023-07-08T09:39:53;100096.53;;;24.16;89.41
48796;BME280;34607;48.520;-1.330;2023-07-08T09:42:21;100097.47;;;24.15;90.37
48796;BME280;34607;48.520;-1.330;2023-07-08T09:44:54;100089.97;;;24.04;91.41
48796;BME280;34607;48.520;-1.330;2023-07-08T09:47:24;100103.34;;;24.01;92.14
48796;BME280;34607;48.520;-1.330;2023-07-08T09:49:54;100117.69;;;23.95;93.14
48796;BME280;34607;48.520;-1.330;2023-07-08T09:52:21;100091.00;;;24.01;93.51
48796;BME280;34607;48.520;-1.330;2023-07-08T09:54:49;100115.81;;;24.38;92.88
48796;BME280;34607;48.520;-1.330;2023-07-08T09:57:25;100111.75;;;24.50;91.96
48796;BME280;34607;48.520;-1.330;2023-07-08T09:59:57;100117.91;;;24.71;91.99
48796;BME280;34607;48.520;-1.330;2023-07-08T10:02:31;100121.03;;;24.79;91.95
48796;BME280;34607;48.520;-1.330;2023-07-08T10:05:03;100131.72;;;24.97;91.47
48796;BME280;34607;48.520;-1.330;2023-07-08T10:07:34;100143.22;;;24.77;90.24
48796;BME280;34607;48.520;-1.330;2023-07-08T10:10:06;100137.91;;;24.58;91.97
48796;BME280;34607;48.520;-1.330;2023-07-08T10:12:37;100108.16;;;24.32;91.57
48796;BME280;34607;48.520;-1.330;2023-07-08T10:15:15;100130.84;;;24.38;91.76
48796;BME280;34607;48.520;-1.330;2023-07-08T10:17:44;100142.00;;;24.44;91.42
48796;BME280;34607;48.520;-1.330;2023-07-08T10:20:12;100136.47;;;24.51;90.27
48796;BME280;34607;48.520;-1.330;2023-07-08T10:25:35;100142.50;;;24.54;88.18
48796;BME280;34607;48.520;-1.330;2023-07-08T10:28:21;100147.38;;;24.43;89.14
48796;BME280;34607;48.520;-1.330;2023-07-08T10:31:02;100153.03;;;24.56;90.51
48796;BME280;34607;48.520;-1.330;2023-07-08T10:34:01;100149.44;;;24.57;89.34
48796;BME280;34607;48.520;-1.330;2023-07-08T10:36:43;100143.81;;;24.44;90.55
48796;BME280;34607;48.520;-1.330;2023-07-08T10:39:34;100146.59;;;24.41;91.26
48796;BME280;34607;48.520;-1.330;2023-07-08T10:42:13;100146.16;;;24.50;91.86
48796;BME280;34607;48.520;-1.330;2023-07-08T10:44:51;100152.69;;;24.82;91.18
48796;BME280;34607;48.520;-1.330;2023-07-08T10:47:32;100143.16;;;24.78;89.75
48796;BME280;34607;48.520;-1.330;2023-07-08T10:50:16;100147.03;;;24.90;89.39
48796;BME280;34607;48.520;-1.330;2023-07-08T10:52:54;100144.81;;;24.81;89.15
48796;BME280;34607;48.520;-1.330;2023-07-08T10:55:35;100137.34;;;25.08;88.33
48796;BME280;34607;48.520;-1.330;2023-07-08T10:58:25;100152.28;;;24.92;87.34
48796;BME280;34607;48.520;-1.330;2023-07-08T11:01:01;100148.66;;;25.31;87.69
48796;BME280;34607;48.520;-1.330;2023-07-08T11:06:45;100152.31;;;25.47;83.81
48796;BME280;34607;48.520;-1.330;2023-07-08T11:09:18;100157.44;;;25.33;83.91
48796;BME280;34607;48.520;-1.330;2023-07-08T11:11:51;100148.34;;;25.56;83.35
48796;BME280;34607;48.520;-1.330;2023-07-08T11:14:24;100161.06;;;26.03;81.93
48796;BME280;34607;48.520;-1.330;2023-07-08T11:17:00;100155.75;;;25.67;80.90
48796;BME280;34607;48.520;-1.330;2023-07-08T11:19:34;100157.22;;;25.55;82.32
48796;BME280;34607;48.520;-1.330;2023-07-08T11:22:09;100169.13;;;25.46;81.06
48796;BME280;34607;48.520;-1.330;2023-07-08T11:24:43;100165.97;;;25.19;80.45
48796;BME280;34607;48.520;-1.330;2023-07-08T11:27:15;100169.22;;;25.45;79.08
48796;BME280;34607;48.520;-1.330;2023-07-08T11:29:48;100161.00;;;25.32;79.43
48796;BME280;34607;48.520;-1.330;2023-07-08T11:32:18;100165.09;;;25.56;79.58
48796;BME280;34607;48.520;-1.330;2023-07-08T11:34:48;100148.00;;;25.81;78.08
48796;BME280;34607;48.520;-1.330;2023-07-08T11:37:19;100154.91;;;25.84;77.67
48796;BME280;34607;48.520;-1.330;2023-07-08T11:39:53;100152.47;;;25.98;76.74
48796;BME280;34607;48.520;-1.330;2023-07-08T11:42:23;100160.09;;;26.39;76.29
48796;BME280;34607;48.520;-1.330;2023-07-08T11:44:54;100160.09;;;26.22;73.74
48796;BME280;34607;48.520;-1.330;2023-07-08T11:47:31;100154.09;;;26.18;73.51
48796;BME280;34607;48.520;-1.330;2023-07-08T11:50:00;100154.72;;;26.74;74.12
48796;BME280;34607;48.520;-1.330;2023-07-08T11:52:30;100159.41;;;27.34;72.87
48796;BME280;34607;48.520;-1.330;2023-07-08T11:55:03;100160.84;;;27.56;69.97
48796;BME280;34607;48.520;-1.330;2023-07-08T11:57:37;100154.34;;;27.30;68.75
48796;BME280;34607;48.520;-1.330;2023-07-08T12:00:14;100165.00;;;27.92;70.13
48796;BME280;34607;48.520;-1.330;2023-07-08T12:02:54;100163.75;;;28.28;68.05
48796;BME280;34607;48.520;-1.330;2023-07-08T12:05:39;100166.50;;;28.26;67.38
48796;BME280;34607;48.520;-1.330;2023-07-08T12:08:14;100156.19;;;28.79;66.39
48796;BME280;34607;48.520;-1.330;2023-07-08T12:10:46;100160.94;;;28.74;65.37
48796;BME280;34607;48.520;-1.330;2023-07-08T12:13:15;100157.84;;;28.51;65.64
48796;BME280;34607;48.520;-1.330;2023-07-08T12:15:44;100151.78;;;28.78;65.94
48796;BME280;34607;48.520;-1.330;2023-07-08T12:18:15;100162.22;;;29.24;65.84
48796;BME280;34607;48.520;-1.330;2023-07-08T12:20:45;100161.66;;;29.19;63.42
48796;BME280;34607;48.520;-1.330;2023-07-08T12:23:17;100141.34;;;28.61;63.50
48796;BME280;34607;48.520;-1.330;2023-07-08T12:25:46;100164.53;;;28.87;64.79
48796;BME280;34607;48.520;-1.330;2023-07-08T12:28:14;100158.22;;;29.03;64.70
48796;BME280;34607;48.520;-1.330;2023-07-08T12:30:42;100153.28;;;28.97;64.15
48796;BME280;34607;48.520;-1.330;2023-07-08T12:33:12;100151.84;;;28.33;64.04
48796;BME280;34607;48.520;-1.330;2023-07-08T12:35:41;100158.66;;;27.78;65.08
48796;BME280;34607;48.520;-1.330;2023-07-08T12:38:18;100148.06;;;27.93;64.92
48796;BME280;34607;48.520;-1.330;2023-07-08T12:40:47;100156.88;;;27.63;66.46
48796;BME280;34607;48.520;-1.330;2023-07-08T12:43:15;100132.38;;;27.72;65.92
48796;BME280;34607;48.520;-1.330;2023-07-08T12:45:43;100147.06;;;28.10;65.81
48796;BME280;34607;48.520;-1.330;2023-07-08T12:48:11;100153.13;;;28.56;66.22
48796;BME280;34607;48.520;-1.330;2023-07-08T12:50:38;100150.03;;;29.20;65.48
48796;BME280;34607;48.520;-1.330;2023-07-08T12:53:05;100149.06;;;29.48;64.22
48796;BME280;34607;48.520;-1.330;2023-07-08T12:55:37;100150.00;;;29.75;63.28
48796;BME280;34607;48.520;-1.330;2023-07-08T12:58:05;100152.50;;;29.50;64.19
48796;BME280;34607;48.520;-1.330;2023-07-08T13:00:39;100145.44;;;29.08;65.50
48796;BME280;34607;48.520;-1.330;2023-07-08T13:03:08;100155.38;;;29.20;65.45
48796;BME280;34607;48.520;-1.330;2023-07-08T13:05:40;100146.13;;;29.26;65.23
48796;BME280;34607;48.520;-1.330;2023-07-08T13:08:11;100145.69;;;28.90;65.44
48796;BME280;34607;48.520;-1.330;2023-07-08T13:10:41;100143.75;;;29.07;64.39
48796;BME280;34607;48.520;-1.330;2023-07-08T13:13:17;100143.03;;;29.32;64.73
48796;BME280;34607;48.520;-1.330;2023-07-08T13:15:45;100142.34;;;29.43;65.22
48796;BME280;34607;48.520;-1.330;2023-07-08T13:18:15;100148.59;;;29.29;64.89
48796;BME280;34607;48.520;-1.330;2023-07-08T13:20:44;100143.34;;;29.27;65.25
48796;BME280;34607;48.520;-1.330;2023-07-08T13:23:13;100142.84;;;29.35;65.46
48796;BME280;34607;48.520;-1.330;2023-07-08T13:25:42;100145.31;;;29.38;65.44
48796;BME280;34607;48.520;-1.330;2023-07-08T13:28:16;100136.28;;;28.85;63.94
48796;BME280;34607;48.520;-1.330;2023-07-08T13:30:50;100110.50;;;28.28;63.86
48796;BME280;34607;48.520;-1.330;2023-07-08T13:33:18;100108.53;;;28.01;65.84
48796;BME280;34607;48.520;-1.330;2023-07-08T13:35:46;100131.22;;;28.37;65.89
48796;BME280;34607;48.520;-1.330;2023-07-08T13:38:15;100129.69;;;28.90;64.68
48796;BME280;34607;48.520;-1.330;2023-07-08T13:40:46;100131.72;;;29.14;64.79
48796;BME280;34607;48.520;-1.330;2023-07-08T13:43:14;100137.28;;;29.25;63.72
48796;BME280;34607;48.520;-1.330;2023-07-08T13:45:44;100138.63;;;28.46;64.53
48796;BME280;34607;48.520;-1.330;2023-07-08T13:48:20;100146.56;;;28.03;65.56
48796;BME280;34607;48.520;-1.330;2023-07-08T13:50:51;100148.06;;;27.93;66.64
48796;BME280;34607;48.520;-1.330;2023-07-08T13:53:23;100152.84;;;28.02;66.44
48796;BME280;34607;48.520;-1.330;2023-07-08T13:56:00;100153.66;;;27.88;66.66
48796;BME280;34607;48.520;-1.330;2023-07-08T13:58:29;100147.34;;;27.89;66.90
48796;BME280;34607;48.520;-1.330;2023-07-08T14:00:57;100147.13;;;27.94;68.61
48796;BME280;34607;48.520;-1.330;2023-07-08T14:03:24;100153.38;;;27.93;69.29
48796;BME280;34607;48.520;-1.330;2023-07-08T14:05:52;100137.41;;;27.93;67.92
48796;BME280;34607;48.520;-1.330;2023-07-08T14:08:19;100142.78;;;27.77;68.07
48796;BME280;34607;48.520;-1.330;2023-07-08T14:10:47;100138.69;;;27.55;68.04
48796;BME280;34607;48.520;-1.330;2023-07-08T14:13:16;100145.94;;;27.37;69.52
48796;BME280;34607;48.520;-1.330;2023-07-08T14:15:43;100135.25;;;27.53;70.47
48796;BME280;34607;48.520;-1.330;2023-07-08T14:18:12;100136.09;;;27.70;69.51
48796;BME280;34607;48.520;-1.330;2023-07-08T14:20:40;100141.09;;;27.60;69.24
48796;BME280;34607;48.520;-1.330;2023-07-08T14:23:09;100136.94;;;27.70;69.03
48796;BME280;34607;48.520;-1.330;2023-07-08T14:25:36;100141.38;;;27.86;68.62
48796;BME280;34607;48.520;-1.330;2023-07-08T14:28:03;100148.13;;;27.61;68.24
48796;BME280;34607;48.520;-1.330;2023-07-08T14:30:34;100147.81;;;27.51;69.58
48796;BME280;34607;48.520;-1.330;2023-07-08T14:33:05;100144.59;;;27.76;69.82
48796;BME280;34607;48.520;-1.330;2023-07-08T14:35:32;100145.28;;;27.64;69.03
48796;BME280;34607;48.520;-1.330;2023-07-08T14:37:59;100147.94;;;27.64;69.45
48796;BME280;34607;48.520;-1.330;2023-07-08T14:40:32;100140.16;;;27.61;69.45
48796;BME280;34607;48.520;-1.330;2023-07-08T14:43:01;100159.22;;;27.53;71.84
48796;BME280;34607;48.520;-1.330;2023-07-08T14:45:30;100131.00;;;27.35;70.59
48796;BME280;34607;48.520;-1.330;2023-07-08T14:48:00;100153.63;;;27.58;70.86
48796;BME280;34607;48.520;-1.330;2023-07-08T14:50:26;100161.56;;;27.74;71.27
48796;BME280;34607;48.520;-1.330;2023-07-08T14:52:55;100155.53;;;27.86;71.48
48796;BME280;34607;48.520;-1.330;2023-07-08T14:55:23;100152.31;;;27.65;70.91
48796;BME280;34607;48.520;-1.330;2023-07-08T14:57:50;100130.03;;;27.52;69.94
48796;BME280;34607;48.520;-1.330;2023-07-08T15:00:18;100157.34;;;27.86;69.39
48796;BME280;34607;48.520;-1.330;2023-07-08T15:02:47;100157.88;;;27.92;70.38
48796;BME280;34607;48.520;-1.330;2023-07-08T15:05:18;100154.97;;;28.26;69.54
48796;BME280;34607;48.520;-1.330;2023-07-08T15:07:48;100158.56;;;28.55;69.75
48796;BME280;34607;48.520;-1.330;2023-07-08T15:10:16;100160.63;;;28.50;69.15
48796;BME280;34607;48.520;-1.330;2023-07-08T15:12:44;100147.47;;;28.32;69.43
48796;BME280;34607;48.520;-1.330;2023-07-08T15:15:16;100150.69;;;28.09;69.11
48796;BME280;34607;48.520;-1.330;2023-07-08T15:17:44;100162.31;;;27.45;69.43
48796;BME280;34607;48.520;-1.330;2023-07-08T15:20:12;100160.75;;;27.41;71.10
48796;BME280;34607;48.520;-1.330;2023-07-08T15:22:42;100156.13;;;27.45;71.50
48796;BME280;34607;48.520;-1.330;2023-07-08T15:25:11;100152.69;;;27.43;71.81
48796;BME280;34607;48.520;-1.330;2023-07-08T15:27:39;100162.38;;;27.12;72.60
48796;BME280;34607;48.520;-1.330;2023-07-08T15:30:15;100159.91;;;27.25;72.27
48796;BME280;34607;48.520;-1.330;2023-07-08T15:32:42;100152.00;;;27.23;72.30
48796;BME280;34607;48.520;-1.330;2023-07-08T15:35:13;100160.94;;;27.38;73.11
48796;BME280;34607;48.520;-1.330;2023-07-08T15:37:43;100159.72;;;27.28;72.15
48796;BME280;34607;48.520;-1.330;2023-07-08T15:40:12;100153.69;;;27.24;72.24
48796;BME280;34607;48.520;-1.330;2023-07-08T15:42:41;100148.16;;;27.13;72.06
48796;BME280;34607;48.520;-1.330;2023-07-08T15:45:22;100156.13;;;27.13;73.36
48796;BME280;34607;48.520;-1.330;2023-07-08T15:47:50;100160.56;;;27.13;72.75
48796;BME280;34607;48.520;-1.330;2023-07-08T15:50:19;100160.56;;;27.13;72.55
48796;BME280;34607;48.520;-1.330;2023-07-08T15:52:47;100163.50;;;27.08;73.12
48796;BME280;34607;48.520;-1.330;2023-07-08T15:55:24;100159.88;;;27.09;72.82
48796;BME280;34607;48.520;-1.330;2023-07-08T15:57:54;100163.81;;;27.02;73.90
48796;BME280;34607;48.520;-1.330;2023-07-08T16:00:24;100156.22;;;26.96;73.85
48796;BME280;34607;48.520;-1.330;2023-07-08T16:02:55;100165.34;;;26.90;72.78
48796;BME280;34607;48.520;-1.330;2023-07-08T16:05:23;100165.72;;;26.84;72.44
48796;BME280;34607;48.520;-1.330;2023-07-08T16:07:53;100163.81;;;26.86;72.26
48796;BME280;34607;48.520;-1.330;2023-07-08T16:10:21;100169.13;;;26.86;72.63
48796;BME280;34607;48.520;-1.330;2023-07-08T16:12:51;100166.53;;;26.51;76.26
48796;BME280;34607;48.520;-1.330;2023-07-08T16:15:25;100179.13;;;26.30;78.09
48796;BME280;34607;48.520;-1.330;2023-07-08T16:17:53;100185.91;;;26.35;77.89
48796;BME280;34607;48.520;-1.330;2023-07-08T16:20:27;100183.56;;;26.47;77.68
48796;BME280;34607;48.520;-1.330;2023-07-08T16:22:56;100175.03;;;26.58;78.37
48796;BME280;34607;48.520;-1.330;2023-07-08T16:25:27;100174.66;;;26.65;78.07
48796;BME280;34607;48.520;-1.330;2023-07-08T16:27:55;100159.50;;;26.67;78.25
48796;BME280;34607;48.520;-1.330;2023-07-08T16:30:25;100167.69;;;26.96;77.98
48796;BME280;34607;48.520;-1.330;2023-07-08T16:32:52;100155.69;;;27.05;77.12
48796;BME280;34607;48.520;-1.330;2023-07-08T16:35:20;100158.16;;;27.24;77.42
48796;BME280;34607;48.520;-1.330;2023-07-08T16:37:50;100166.25;;;27.38;76.65
48796;BME280;34607;48.520;-1.330;2023-07-08T16:40:20;100159.22;;;27.53;75.81
48796;BME280;34607;48.520;-1.330;2023-07-08T16:42:48;100144.22;;;27.36;75.98
48796;BME280;34607;48.520;-1.330;2023-07-08T16:45:18;100161.75;;;27.71;74.68
48796;BME280;34607;48.520;-1.330;2023-07-08T16:47:46;100173.75;;;27.78;75.49
48796;BME280;34607;48.520;-1.330;2023-07-08T16:50:18;100176.94;;;27.69;76.94
48796;BME280;34607;48.520;-1.330;2023-07-08T16:52:45;100172.50;;;27.53;77.51
48796;BME280;34607;48.520;-1.330;2023-07-08T16:55:15;100175.94;;;27.39;77.57
48796;BME280;34607;48.520;-1.330;2023-07-08T16:57:44;100168.50;;;27.30;77.44
48796;BME280;34607;48.520;-1.330;2023-07-08T17:00:13;100171.94;;;27.32;76.88
48796;BME280;34607;48.520;-1.330;2023-07-08T17:02:41;100176.47;;;27.30;78.23
48796;BME280;34607;48.520;-1.330;2023-07-08T17:05:19;100171.91;;;27.16;77.73
48796;BME280;34607;48.520;-1.330;2023-07-08T17:07:46;100175.75;;;27.10;78.56
48796;BME280;34607;48.520;-1.330;2023-07-08T17:10:14;100177.56;;;27.10;78.26
48796;BME280;34607;48.520;-1.330;2023-07-08T17:12:41;100189.22;;;27.23;77.76
48796;BME280;34607;48.520;-1.330;2023-07-08T17:15:11;100193.66;;;27.23;79.00
48796;BME280;34607;48.520;-1.330;2023-07-08T17:17:40;100177.13;;;27.02;78.68
48796;BME280;34607;48.520;-1.330;2023-07-08T17:20:20;100198.63;;;26.97;79.28
48796;BME280;34607;48.520;-1.330;2023-07-08T17:22:47;100191.47;;;26.82;80.24
48796;BME280;34607;48.520;-1.330;2023-07-08T17:25:16;100198.97;;;26.91;81.17
48796;BME280;34607;48.520;-1.330;2023-07-08T17:27:43;100205.59;;;26.66;80.60
48796;BME280;34607;48.520;-1.330;2023-07-08T17:30:13;100219.88;;;26.11;83.71
48796;BME280;34607;48.520;-1.330;2023-07-08T17:32:42;100223.56;;;26.09;83.05
48796;BME280;34607;48.520;-1.330;2023-07-08T17:35:12;100227.06;;;26.09;82.31
48796;BME280;34607;48.520;-1.330;2023-07-08T17:37:40;100223.97;;;25.82;83.16
48796;BME280;34607;48.520;-1.330;2023-07-08T17:40:13;100222.22;;;25.64;83.15
48796;BME280;34607;48.520;-1.330;2023-07-08T17:42:40;100238.22;;;25.62;83.20
48796;BME280;34607;48.520;-1.330;2023-07-08T17:45:10;100232.19;;;25.58;82.87
48796;BME280;34607;48.520;-1.330;2023-07-08T17:47:39;100235.22;;;25.51;83.12
48796;BME280;34607;48.520;-1.330;2023-07-08T17:50:18;100243.44;;;25.26;83.51
48796;BME280;34607;48.520;-1.330;2023-07-08T17:52:46;100240.28;;;25.17;84.18
48796;BME280;34607;48.520;-1.330;2023-07-08T17:55:14;100210.56;;;25.11;83.90
48796;BME280;34607;48.520;-1.330;2023-07-08T17:57:42;100246.50;;;25.16;83.80
48796;BME280;34607;48.520;-1.330;2023-07-08T18:00:13;100248.31;;;25.16;84.10
48796;BME280;34607;48.520;-1.330;2023-07-08T18:02:43;100244.66;;;24.79;84.76
48796;BME280;34607;48.520;-1.330;2023-07-08T18:05:15;100259.03;;;24.73;85.08
48796;BME280;34607;48.520;-1.330;2023-07-08T18:07:44;100260.75;;;24.74;85.13
48796;BME280;34607;48.520;-1.330;2023-07-08T18:10:12;100257.59;;;24.66;85.75
48796;BME280;34607;48.520;-1.330;2023-07-08T18:12:39;100267.09;;;24.70;85.49
48796;BME280;34607;48.520;-1.330;2023-07-08T18:15:20;100243.03;;;24.56;85.54
48796;BME280;34607;48.520;-1.330;2023-07-08T18:17:51;100264.00;;;24.60;85.57